createdAt,value
2023-09-25T00:02:02.006Z,15.93
2023-09-25T00:04:30.053Z,15.99
2023-09-25T00:06:56.692Z,15.90
2023-09-25T00:09:24.381Z,15.99
2023-09-25T00:11:50.913Z,15.93
2023-09-25T00:14:17.399Z,15.97
2023-09-25T00:16:43.892Z,15.96
2023-09-25T00:19:10.617Z,16.06
2023-09-25T00:21:37.331Z,16.09
2023-09-25T00:24:04.098Z,16.04
2023-09-25T00:26:30.929Z,16.12
2023-09-25T00:28:57.479Z,16.12
2023-09-25T00:31:24.006Z,16.23
2023-09-25T00:33:51.563Z,16.32
2023-09-25T00:36:19.537Z,16.36
2023-09-25T00:38:46.044Z,16.42
2023-09-25T00:41:12.635Z,16.58
2023-09-25T00:43:39.196Z,16.60
2023-09-25T00:46:05.702Z,16.47
2023-09-25T00:48:32.445Z,16.46
2023-09-25T00:51:01.189Z,16.42
2023-09-25T00:53:29.693Z,16.55
2023-09-25T00:55:56.852Z,16.59
2023-09-25T00:58:24.750Z,16.72
2023-09-25T01:00:51.694Z,16.81
2023-09-25T01:03:19.565Z,16.93
2023-09-25T01:05:46.890Z,16.96
2023-09-25T01:08:13.995Z,16.94
2023-09-25T01:10:42.051Z,17.04
2023-09-25T01:13:11.108Z,16.81
2023-09-25T01:15:38.337Z,16.64
2023-09-25T01:18:05.595Z,16.64
2023-09-25T01:20:32.348Z,16.62
2023-09-25T01:22:58.793Z,16.47
2023-09-25T01:25:25.447Z,16.50
2023-09-25T01:27:52.434Z,16.43
2023-09-25T01:30:19.495Z,16.58
2023-09-25T01:32:47.547Z,16.55
2023-09-25T01:35:16.035Z,16.59
2023-09-25T01:37:42.983Z,16.59
2023-09-25T01:40:13.464Z,16.50
2023-09-25T01:42:41.080Z,16.49
2023-09-25T01:45:09.992Z,16.48
2023-09-25T01:47:36.872Z,16.50
2023-09-25T01:50:05.006Z,16.51
2023-09-25T01:52:31.585Z,16.61
2023-09-25T01:54:58.444Z,16.68
2023-09-25T01:57:24.989Z,16.56
2023-09-25T01:59:51.561Z,16.55
2023-09-25T02:02:18.061Z,16.55
2023-09-25T02:04:44.798Z,16.57
2023-09-25T02:07:12.337Z,16.54
2023-09-25T02:09:39.004Z,16.55
2023-09-25T02:12:06.225Z,16.57
2023-09-25T02:14:32.777Z,16.64
2023-09-25T02:16:59.759Z,16.59
2023-09-25T02:19:29.530Z,16.58
2023-09-25T02:21:56.013Z,16.43
2023-09-25T02:24:22.953Z,16.52
2023-09-25T02:26:49.618Z,16.29
2023-09-25T02:29:16.130Z,16.42
2023-09-25T02:31:42.644Z,16.32
2023-09-25T02:34:15.449Z,16.45
2023-09-25T02:36:42.426Z,16.49
2023-09-25T02:39:11.048Z,16.42
2023-09-25T02:41:37.710Z,16.42
2023-09-25T02:44:04.273Z,16.40
2023-09-25T02:46:30.833Z,16.54
2023-09-25T02:48:57.606Z,16.60
2023-09-25T02:51:24.370Z,16.69
2023-09-25T02:53:52.096Z,16.83
2023-09-25T02:56:18.824Z,16.87
2023-09-25T02:58:46.403Z,16.86
2023-09-25T03:01:13.231Z,16.82
2023-09-25T03:03:40.468Z,16.84
2023-09-25T03:06:06.987Z,16.82
2023-09-25T03:08:33.500Z,16.78
2023-09-25T03:10:59.952Z,16.79
2023-09-25T03:13:26.444Z,16.80
2023-09-25T03:15:53.003Z,16.78
2023-09-25T03:18:19.658Z,16.80
2023-09-25T03:20:46.167Z,16.77
2023-09-25T03:23:12.722Z,16.87
2023-09-25T03:25:42.307Z,16.89
2023-09-25T03:28:08.800Z,16.89
2023-09-25T03:30:35.395Z,16.98
2023-09-25T03:33:01.947Z,16.89
2023-09-25T03:35:28.538Z,16.68
2023-09-25T03:37:55.820Z,16.61
2023-09-25T03:40:22.396Z,16.68
2023-09-25T03:42:48.927Z,16.21
2023-09-25T03:45:15.526Z,16.13
2023-09-25T03:47:43.174Z,16.08
2023-09-25T03:50:10.195Z,16.15
2023-09-25T03:52:36.819Z,16.16
2023-09-25T03:55:03.528Z,16.26
2023-09-25T03:57:30.099Z,16.28
2023-09-25T03:59:56.657Z,16.21
2023-09-25T04:02:23.294Z,16.29
2023-09-25T04:04:52.086Z,16.30
2023-09-25T04:07:19.577Z,16.46
2023-09-25T04:09:49.331Z,16.60
2023-09-25T04:12:15.941Z,16.67
2023-09-25T04:14:42.876Z,16.63
2023-09-25T04:17:09.382Z,16.68
2023-09-25T04:19:36.061Z,16.60
2023-09-25T04:22:08.165Z,16.55
2023-09-25T04:24:38.548Z,16.57
2023-09-25T04:27:05.513Z,16.65
2023-09-25T04:29:32.480Z,16.65
2023-09-25T04:31:59.358Z,16.64
2023-09-25T04:34:25.912Z,16.67
2023-09-25T04:36:54.193Z,16.61
2023-09-25T04:39:21.501Z,16.72
2023-09-25T04:41:48.995Z,16.81
2023-09-25T04:44:15.628Z,16.94
2023-09-25T04:46:42.290Z,16.90
2023-09-25T04:49:09.378Z,16.91
2023-09-25T04:51:36.006Z,16.98
2023-09-25T04:54:02.658Z,17.11
2023-09-25T04:56:29.152Z,16.96
2023-09-25T04:58:56.337Z,17.08
2023-09-25T05:01:22.872Z,17.04
2023-09-25T05:03:49.573Z,16.99
2023-09-25T05:06:17.026Z,16.94
2023-09-25T05:08:44.752Z,17.02
2023-09-25T05:11:12.247Z,16.99
2023-09-25T05:13:38.760Z,16.94
2023-09-25T05:16:05.540Z,16.92
2023-09-25T05:18:32.471Z,16.88
2023-09-25T05:20:59.476Z,16.90
2023-09-25T05:23:26.723Z,16.90
2023-09-25T05:25:57.812Z,16.91
2023-09-25T05:28:24.300Z,16.90
2023-09-25T05:30:51.104Z,17.01
2023-09-25T05:33:17.750Z,17.13
2023-09-25T05:35:44.286Z,17.17
2023-09-25T05:38:10.871Z,17.45
2023-09-25T05:40:37.371Z,17.16
2023-09-25T05:43:04.107Z,17.14
2023-09-25T05:45:30.747Z,17.30
2023-09-25T05:47:57.302Z,17.53
2023-09-25T05:50:23.927Z,17.59
2023-09-25T05:52:50.434Z,17.68
2023-09-25T05:55:17.023Z,17.54
2023-09-25T05:57:43.628Z,17.63
2023-09-25T06:00:14.206Z,17.75
2023-09-25T06:02:42.052Z,17.78
2023-09-25T06:05:09.913Z,17.80
2023-09-25T06:07:36.616Z,17.77
2023-09-25T06:10:06.357Z,17.76
2023-09-25T06:12:32.994Z,17.79
2023-09-25T06:14:59.759Z,17.97
2023-09-25T06:17:29.112Z,18.07
2023-09-25T06:19:55.921Z,18.18
2023-09-25T06:22:25.260Z,18.10
2023-09-25T06:24:52.046Z,18.04
2023-09-25T06:27:18.609Z,18.17
2023-09-25T06:29:45.117Z,18.12
2023-09-25T06:32:12.620Z,18.23
2023-09-25T06:34:40.507Z,18.22
2023-09-25T06:37:07.496Z,18.19
2023-09-25T06:39:34.804Z,18.32
2023-09-25T06:42:01.361Z,18.44
2023-09-25T06:44:27.907Z,18.44
2023-09-25T06:46:54.468Z,18.40
2023-09-25T06:49:21.334Z,18.46
2023-09-25T06:51:49.011Z,18.47
2023-09-25T06:54:15.630Z,18.54
2023-09-25T06:56:42.225Z,18.65
2023-09-25T06:59:08.696Z,18.71
2023-09-25T07:01:35.343Z,18.63
2023-09-25T07:04:02.146Z,18.67
2023-09-25T07:06:28.751Z,18.67
2023-09-25T07:08:55.245Z,18.79
2023-09-25T07:11:21.815Z,18.86
2023-09-25T07:13:49.941Z,18.79
2023-09-25T07:16:16.958Z,18.93
2023-09-25T07:18:45.316Z,19.02
2023-09-25T07:23:38.530Z,19.06
2023-09-25T07:26:09.755Z,19.04
2023-09-25T07:28:37.621Z,19.06
2023-09-25T07:31:06.441Z,19.01
2023-09-25T07:33:34.121Z,19.19
2023-09-25T07:36:03.752Z,19.20
2023-09-25T07:38:32.732Z,19.30
2023-09-25T07:41:01.366Z,19.37
2023-09-25T07:43:56.936Z,19.29
2023-09-25T07:46:20.662Z,19.47
2023-09-25T07:48:48.494Z,19.50
2023-09-25T07:51:15.604Z,19.54
2023-09-25T07:53:46.152Z,19.66
2023-09-25T07:56:13.032Z,19.69
2023-09-25T07:58:41.348Z,19.94
2023-09-25T08:01:10.174Z,19.99
2023-09-25T08:03:39.447Z,20.00
2023-09-25T08:06:07.298Z,20.07
2023-09-25T08:08:35.621Z,19.93
2023-09-25T08:11:02.683Z,19.94
2023-09-25T08:13:29.485Z,20.04
2023-09-25T08:15:56.270Z,20.02
2023-09-25T08:18:23.067Z,20.13
2023-09-25T08:20:49.671Z,20.37
2023-09-25T08:23:16.282Z,20.58
2023-09-25T08:25:42.795Z,20.40
2023-09-25T08:28:09.336Z,20.49
2023-09-25T08:30:36.032Z,20.48
2023-09-25T08:33:02.653Z,20.64
2023-09-25T08:35:29.463Z,20.73
2023-09-25T08:37:55.985Z,20.67
2023-09-25T08:40:22.722Z,20.55
2023-09-25T08:43:01.765Z,20.47
2023-09-25T08:45:35.897Z,20.62
2023-09-25T08:48:02.480Z,20.63
2023-09-25T08:50:29.147Z,20.64
2023-09-25T08:52:57.751Z,20.74
2023-09-25T08:55:26.127Z,20.92
2023-09-25T08:57:53.177Z,21.06
2023-09-25T09:00:20.788Z,21.35
2023-09-25T09:02:48.226Z,21.51
2023-09-25T09:05:14.900Z,21.60
2023-09-25T09:08:01.901Z,21.37
2023-09-25T09:10:37.429Z,21.26
2023-09-25T09:13:13.983Z,21.03
2023-09-25T09:15:41.709Z,21.01
2023-09-25T09:18:25.755Z,21.13
2023-09-25T09:20:54.867Z,21.12
2023-09-25T09:23:21.436Z,21.01
2023-09-25T09:25:49.114Z,21.11
2023-09-25T09:28:16.206Z,21.08
2023-09-25T09:30:42.948Z,20.89
2023-09-25T09:33:10.387Z,20.87
2023-09-25T09:35:36.960Z,20.84
2023-09-25T09:38:06.704Z,20.95
2023-09-25T09:40:36.765Z,20.85
2023-09-25T09:43:04.457Z,20.82
2023-09-25T09:45:31.625Z,20.91
2023-09-25T09:47:59.956Z,20.90
2023-09-25T09:50:29.922Z,20.93
2023-09-25T09:52:57.823Z,21.07
2023-09-25T09:55:25.406Z,21.20
2023-09-25T09:57:52.149Z,21.33
2023-09-25T10:00:19.122Z,21.35
2023-09-25T10:02:48.368Z,21.49
2023-09-25T10:05:16.368Z,21.56
2023-09-25T10:08:11.126Z,21.64
2023-09-25T10:10:41.756Z,21.70
2023-09-25T10:13:13.857Z,21.88
2023-09-25T10:15:40.590Z,21.90
2023-09-25T10:18:07.837Z,22.09
2023-09-25T10:20:42.302Z,22.19
2023-09-25T10:23:12.455Z,22.05
2023-09-25T10:25:49.458Z,21.96
2023-09-25T10:28:18.084Z,21.90
2023-09-25T10:30:44.644Z,21.72
2023-09-25T10:33:11.533Z,21.67
2023-09-25T10:35:53.289Z,21.55
2023-09-25T10:38:31.965Z,21.47
2023-09-25T10:41:08.699Z,21.50
2023-09-25T10:43:37.017Z,21.46
2023-09-25T10:46:04.836Z,21.53
2023-09-25T10:48:33.327Z,21.51
2023-09-25T10:50:59.954Z,21.52
2023-09-25T10:53:28.179Z,21.69
2023-09-25T10:55:55.241Z,21.81
2023-09-25T10:58:22.454Z,21.95
2023-09-25T11:00:52.601Z,22.01
2023-09-25T11:03:21.105Z,22.09
2023-09-25T11:05:48.339Z,22.17
2023-09-25T11:08:19.547Z,22.22
2023-09-25T11:10:47.449Z,22.31
2023-09-25T11:13:14.260Z,22.28
2023-09-25T11:15:42.653Z,22.13
2023-09-25T11:18:11.068Z,22.17
2023-09-25T11:20:42.490Z,22.29
2023-09-25T11:25:49.042Z,22.77
2023-09-25T11:28:24.437Z,22.89
2023-09-25T11:30:52.121Z,23.09
2023-09-25T11:33:22.402Z,23.34
2023-09-25T11:35:53.238Z,23.31
2023-09-25T11:38:23.229Z,23.42
2023-09-25T11:40:56.707Z,23.64
2023-09-25T11:43:26.708Z,23.78
2023-09-25T11:46:01.160Z,23.88
2023-09-25T11:48:27.868Z,24.19
2023-09-25T11:50:54.589Z,24.39
2023-09-25T11:53:21.703Z,24.58
2023-09-25T11:55:50.410Z,24.52
2023-09-25T11:58:17.422Z,24.58
2023-09-25T12:00:44.742Z,24.61
2023-09-25T12:03:15.034Z,24.89
2023-09-25T12:05:42.877Z,24.80
2023-09-25T12:08:09.507Z,24.87
2023-09-25T12:10:39.946Z,24.88
2023-09-25T12:13:08.534Z,24.89
2023-09-25T12:15:38.428Z,24.86
2023-09-25T12:18:05.869Z,24.98
2023-09-25T12:20:32.560Z,24.90
2023-09-25T12:22:59.174Z,25.08
2023-09-25T12:25:26.180Z,25.25
2023-09-25T12:27:54.063Z,25.37
2023-09-25T12:30:21.248Z,25.24
2023-09-25T12:32:49.302Z,25.22
2023-09-25T12:35:16.985Z,25.34
2023-09-25T12:37:44.884Z,25.44
2023-09-25T12:40:12.763Z,25.10
2023-09-25T12:42:54.079Z,24.92
2023-09-25T12:45:22.915Z,24.88
2023-09-25T12:47:50.118Z,24.92
2023-09-25T12:50:16.828Z,25.06
2023-09-25T12:52:43.430Z,25.17
2023-09-25T12:55:10.353Z,25.39
2023-09-25T12:57:37.238Z,25.48
2023-09-25T13:00:05.965Z,25.47
2023-09-25T13:02:33.069Z,25.63
2023-09-25T13:04:59.791Z,25.72
2023-09-25T13:07:26.393Z,25.64
2023-09-25T13:09:53.136Z,25.83
2023-09-25T13:12:19.742Z,25.88
2023-09-25T13:14:46.182Z,25.88
2023-09-25T13:17:13.035Z,25.99
2023-09-25T13:19:43.132Z,25.97
2023-09-25T13:22:28.916Z,25.96
2023-09-25T13:24:58.923Z,25.91
2023-09-25T13:27:25.478Z,25.80
2023-09-25T13:29:52.572Z,25.75
2023-09-25T13:32:19.303Z,25.79
2023-09-25T13:34:46.156Z,25.74
2023-09-25T13:37:12.875Z,25.78
2023-09-25T13:39:42.305Z,25.93
2023-09-25T13:42:09.130Z,26.03
2023-09-25T13:44:36.706Z,26.05
2023-09-25T13:47:03.319Z,26.02
2023-09-25T13:49:30.286Z,26.20
2023-09-25T13:51:58.138Z,26.10
2023-09-25T13:54:24.793Z,26.23
2023-09-25T13:56:51.349Z,26.16
2023-09-25T13:59:18.540Z,26.19
2023-09-25T14:01:48.174Z,26.15
2023-09-25T14:04:15.444Z,26.15
2023-09-25T14:06:43.137Z,26.24
2023-09-25T14:09:10.508Z,26.24
2023-09-25T14:11:37.370Z,26.31
2023-09-25T14:14:05.506Z,26.29
2023-09-25T14:16:32.329Z,26.49
2023-09-25T14:18:58.984Z,26.43
2023-09-25T14:21:25.541Z,26.37
2023-09-25T14:23:52.261Z,26.42
2023-09-25T14:26:18.837Z,26.50
2023-09-25T14:28:46.182Z,26.74
2023-09-25T14:31:13.121Z,26.66
2023-09-25T14:33:40.519Z,26.71
2023-09-25T14:36:10.580Z,26.64
2023-09-25T14:38:37.050Z,26.78
2023-09-25T14:41:03.648Z,26.72
2023-09-25T14:43:30.254Z,26.92
2023-09-25T14:45:56.818Z,27.04
2023-09-25T14:48:23.598Z,26.72
2023-09-25T14:50:50.233Z,26.77
2023-09-25T14:53:16.715Z,26.88
2023-09-25T14:55:56.159Z,26.97
2023-09-25T14:58:24.105Z,27.22
2023-09-25T15:00:59.726Z,26.48
2023-09-25T15:03:28.015Z,26.91
2023-09-25T15:05:55.499Z,26.97
2023-09-25T15:08:26.968Z,27.21
2023-09-25T15:10:54.728Z,27.11
2023-09-25T15:13:21.987Z,27.27
2023-09-25T15:15:49.851Z,27.00
2023-09-25T15:18:17.270Z,26.31
2023-09-25T15:20:43.972Z,25.47
2023-09-25T15:23:11.422Z,25.23
2023-09-25T15:25:37.972Z,24.89
2023-09-25T15:28:05.040Z,24.66
2023-09-25T15:30:31.696Z,24.60
2023-09-25T15:32:58.373Z,24.21
2023-09-25T15:35:25.012Z,24.37
2023-09-25T15:37:51.558Z,24.15
2023-09-25T15:40:20.173Z,24.21
2023-09-25T15:42:47.103Z,23.96
2023-09-25T15:45:14.863Z,23.62
2023-09-25T15:47:41.384Z,23.39
2023-09-25T15:50:08.743Z,23.40
2023-09-25T15:52:35.269Z,23.20
2023-09-25T15:55:02.291Z,22.99
2023-09-25T15:57:29.149Z,22.71
2023-09-25T15:59:55.728Z,22.61
2023-09-25T16:02:22.489Z,22.63
2023-09-25T16:04:49.292Z,22.50
2023-09-25T16:07:15.961Z,22.49
2023-09-25T16:09:42.629Z,22.46
2023-09-25T16:14:35.909Z,22.59
2023-09-25T16:17:02.429Z,22.68
2023-09-25T16:19:28.968Z,22.43
2023-09-25T16:21:55.516Z,22.31
2023-09-25T16:24:22.054Z,22.15
2023-09-25T16:26:48.588Z,21.92
2023-09-25T16:29:15.042Z,21.89
2023-09-25T16:31:41.722Z,21.84
2023-09-25T16:34:08.564Z,21.50
2023-09-25T16:36:35.138Z,21.21
2023-09-25T16:39:01.714Z,21.15
2023-09-25T16:41:30.911Z,21.27
2023-09-25T16:43:57.353Z,21.47
2023-09-25T16:46:23.958Z,21.14
2023-09-25T16:48:50.662Z,21.15
2023-09-25T16:51:17.175Z,20.98
2023-09-25T16:53:43.719Z,20.66
2023-09-25T16:56:10.328Z,20.59
2023-09-25T16:58:38.446Z,20.40
2023-09-25T17:01:07.634Z,20.36
2023-09-25T17:03:34.654Z,20.29
2023-09-25T17:06:02.438Z,20.22
2023-09-25T17:08:30.148Z,20.13
2023-09-25T17:10:57.141Z,20.05
2023-09-25T17:13:25.484Z,20.21
2023-09-25T17:15:52.091Z,20.23
2023-09-25T17:18:19.978Z,20.09
2023-09-25T17:20:46.648Z,20.02
2023-09-25T17:23:13.262Z,19.94
2023-09-25T17:25:39.753Z,19.83
2023-09-25T17:28:07.271Z,19.81
2023-09-25T17:30:35.685Z,19.71
2023-09-25T17:33:06.510Z,19.83
2023-09-25T17:35:33.479Z,19.72
2023-09-25T17:38:03.577Z,19.72
2023-09-25T17:40:30.237Z,19.72
2023-09-25T17:42:56.845Z,19.80
2023-09-25T17:45:23.501Z,19.66
2023-09-25T17:47:50.438Z,19.57
2023-09-25T17:50:17.301Z,19.58
2023-09-25T17:52:48.452Z,19.61
2023-09-25T17:55:15.746Z,19.58
2023-09-25T17:57:43.567Z,19.47
2023-09-25T18:00:10.600Z,19.49
2023-09-25T18:02:37.145Z,19.48
2023-09-25T18:05:04.821Z,19.65
2023-09-25T18:07:31.533Z,19.52
2023-09-25T18:09:58.089Z,19.44
2023-09-25T18:12:24.636Z,19.58
2023-09-25T18:14:51.115Z,19.71
2023-09-25T18:17:17.574Z,20.00
2023-09-25T18:19:44.090Z,20.07
2023-09-25T18:22:13.239Z,19.82
2023-09-25T18:24:41.346Z,19.84
2023-09-25T18:27:08.092Z,19.75
2023-09-25T18:29:36.761Z,19.54
2023-09-25T18:32:05.483Z,19.37
2023-09-25T18:34:32.030Z,19.25
2023-09-25T18:37:01.731Z,19.18
2023-09-25T18:39:29.497Z,19.12
2023-09-25T18:41:56.057Z,19.16
2023-09-25T18:44:23.197Z,19.20
2023-09-25T18:46:50.952Z,19.17
2023-09-25T18:49:17.864Z,19.20
2023-09-25T18:51:44.499Z,19.14
2023-09-25T18:54:11.093Z,19.08
2023-09-25T18:56:37.667Z,19.11
2023-09-25T18:59:06.161Z,19.17
2023-09-25T19:01:34.311Z,19.09
2023-09-25T19:04:00.977Z,18.91
2023-09-25T19:06:27.695Z,18.98
2023-09-25T19:08:54.568Z,18.82
2023-09-25T19:11:21.226Z,18.95
2023-09-25T19:13:48.263Z,19.03
2023-09-25T19:16:15.147Z,18.95
2023-09-25T19:18:42.273Z,19.02
2023-09-25T19:21:09.068Z,18.90
2023-09-25T19:23:47.761Z,18.90
2023-09-25T19:26:14.264Z,18.78
2023-09-25T19:28:40.733Z,18.73
2023-09-25T19:31:16.370Z,18.67
2023-09-25T19:34:02.354Z,18.57
2023-09-25T19:36:29.237Z,18.68
2023-09-25T19:38:55.815Z,18.61
2023-09-25T19:41:22.390Z,18.74
2023-09-25T19:43:49.950Z,18.58
2023-09-25T19:46:16.941Z,18.50
2023-09-25T19:48:43.489Z,18.65
2023-09-25T19:51:11.488Z,18.51
2023-09-25T19:53:39.219Z,18.43
2023-09-25T19:56:06.123Z,18.41
2023-09-25T19:58:32.618Z,18.34
2023-09-25T20:01:12.854Z,18.41
2023-09-25T20:03:39.660Z,18.35
2023-09-25T20:06:06.915Z,18.51
2023-09-25T20:08:33.738Z,18.46
2023-09-25T20:11:00.766Z,18.56
2023-09-25T20:13:27.428Z,18.51
2023-09-25T20:15:54.730Z,18.56
2023-09-25T20:18:22.137Z,18.45
2023-09-25T20:20:56.836Z,18.34
2023-09-25T20:23:24.165Z,18.34
2023-09-25T20:25:51.456Z,18.27
2023-09-25T20:28:18.327Z,18.37
2023-09-25T20:30:45.641Z,18.32
2023-09-25T20:33:12.337Z,18.27
2023-09-25T20:35:38.833Z,18.41
2023-09-25T20:38:05.291Z,18.32
2023-09-25T20:40:31.822Z,18.24
2023-09-25T20:42:58.623Z,18.25
2023-09-25T20:45:26.414Z,18.19
2023-09-25T20:47:54.922Z,18.19
2023-09-25T20:50:27.884Z,18.18
2023-09-25T20:52:55.859Z,18.33
2023-09-25T20:55:23.264Z,18.18
2023-09-25T20:57:49.996Z,18.29
2023-09-25T21:00:16.978Z,18.33
2023-09-25T21:02:43.595Z,18.35
2023-09-25T21:05:10.723Z,18.36
2023-09-25T21:07:37.803Z,18.34
2023-09-25T21:10:04.923Z,18.18
2023-09-25T21:12:31.559Z,18.27
2023-09-25T21:14:58.162Z,18.25
2023-09-25T21:17:24.764Z,18.12
2023-09-25T21:19:51.376Z,18.14
2023-09-25T21:22:17.870Z,18.01
2023-09-25T21:24:44.452Z,18.03
2023-09-25T21:27:11.110Z,18.02
2023-09-25T21:29:38.069Z,18.12
2023-09-25T21:32:04.851Z,18.04
2023-09-25T21:34:32.287Z,17.89
2023-09-25T21:36:58.952Z,17.92
2023-09-25T21:39:25.574Z,17.91
2023-09-25T21:41:52.069Z,18.04
2023-09-25T21:44:18.637Z,17.99
2023-09-25T21:46:45.207Z,17.99
2023-09-25T21:49:11.906Z,18.01
2023-09-25T21:51:38.519Z,18.01
2023-09-25T21:54:06.349Z,17.94
2023-09-25T21:56:33.054Z,18.07
2023-09-25T21:58:59.585Z,18.05
2023-09-25T22:01:27.700Z,17.86
2023-09-25T22:03:54.733Z,17.90
2023-09-25T22:06:21.714Z,17.69
2023-09-25T22:08:48.196Z,17.75
2023-09-25T22:11:14.674Z,17.68
2023-09-25T22:13:41.266Z,17.59
2023-09-25T22:16:09.751Z,17.59
2023-09-25T22:18:40.441Z,17.62
2023-09-25T22:21:08.442Z,17.70
2023-09-25T22:23:40.186Z,17.63
2023-09-25T22:26:08.504Z,17.74
2023-09-25T22:28:39.297Z,17.75
2023-09-25T22:31:17.368Z,17.66
2023-09-25T22:33:45.638Z,17.61
2023-09-25T22:36:12.341Z,17.80
2023-09-25T22:38:38.970Z,17.74
2023-09-25T22:41:05.917Z,17.68
2023-09-25T22:43:33.412Z,17.81
2023-09-25T22:46:01.239Z,17.76
2023-09-25T22:48:28.251Z,17.69
2023-09-25T22:50:54.790Z,17.72
2023-09-25T22:53:21.388Z,17.78
2023-09-25T22:55:47.857Z,17.71
2023-09-25T22:58:14.441Z,17.66
2023-09-25T23:00:41.068Z,17.53
2023-09-25T23:03:08.617Z,17.54
2023-09-25T23:05:35.318Z,17.66
2023-09-25T23:08:01.793Z,17.48
2023-09-25T23:10:28.323Z,17.46
2023-09-25T23:12:56.093Z,17.57
2023-09-25T23:15:22.908Z,17.52
2023-09-25T23:17:49.560Z,17.58
2023-09-25T23:20:24.223Z,17.50
2023-09-25T23:22:52.904Z,17.64
2023-09-25T23:25:20.987Z,17.54
2023-09-25T23:27:49.569Z,17.62
2023-09-25T23:30:17.135Z,17.60
2023-09-25T23:32:46.320Z,17.57
2023-09-25T23:35:14.346Z,17.46
2023-09-25T23:37:42.348Z,17.38
2023-09-25T23:40:22.198Z,17.19
2023-09-25T23:42:50.066Z,17.15
2023-09-25T23:45:18.188Z,17.16
2023-09-25T23:47:46.670Z,17.25
2023-09-25T23:50:14.950Z,17.33
2023-09-25T23:52:42.221Z,17.24
2023-09-25T23:55:10.354Z,17.30
2023-09-25T23:57:39.977Z,17.29
